Time;durP1;ratioP1;P1;durP2;ratioP2;P2;SDS_P1;SDS_P2;PMS_P1;PMS_P2;Temp;Humidity;BMP_temperature;BMP_pressure;BME280_temperature;BME280_humidity;BME280_pressure;Samples;Min_cycle;Max_cycle;Signal;HPM_P1;HPM_P2
2023/01/10 00:00:39;;;;;;;6.78;5.10;;;5.90;99.90;;;;;;5019228;28;20409;-53
2023/01/10 00:03:25;;;;;;;7.25;4.80;;;5.90;99.90;;;;;;5032767;28;20030;-54
2023/01/10 00:06:11;;;;;;;8.63;4.97;;;6.00;99.90;;;;;;5031845;28;20071;-52
2023/01/10 00:08:56;;;;;;;7.68;4.35;;;6.10;99.90;;;;;;5031388;28;20514;-54
2023/01/10 00:14:47;;;;;;;7.05;4.50;;;6.30;99.90;;;;;;5031743;28;20073;-51
2023/01/10 00:17:33;;;;;;;8.45;4.47;;;6.30;99.90;;;;;;5004760;28;20025;-50
2023/01/10 00:20:19;;;;;;;9.02;5.43;;;6.30;99.90;;;;;;5031939;28;20066;-53
2023/01/10 00:23:05;;;;;;;6.53;4.90;;;6.30;99.90;;;;;;5031891;28;20034;-55
2023/01/10 00:25:51;;;;;;;8.93;5.00;;;6.30;99.90;;;;;;5031837;28;20128;-55
2023/01/10 00:28:38;;;;;;;9.32;5.55;;;6.40;99.90;;;;;;5031198;28;20034;-52
2023/01/10 00:31:24;;;;;;;9.23;6.32;;;6.30;99.90;;;;;;5018210;28;20489;-47
2023/01/10 00:34:10;;;;;;;6.72;5.70;;;6.40;99.90;;;;;;5033006;28;20540;-47
2023/01/10 00:36:56;;;;;;;7.68;5.35;;;6.40;99.90;;;;;;4992072;28;20022;-50
2023/01/10 00:39:42;;;;;;;8.60;5.20;;;6.30;99.90;;;;;;5006430;28;20118;-47
2023/01/10 00:45:32;;;;;;;7.82;5.30;;;6.00;99.90;;;;;;4992552;28;20438;-46
2023/01/10 00:48:18;;;;;;;9.95;6.15;;;5.80;99.90;;;;;;5005300;28;20054;-51
2023/01/10 00:51:04;;;;;;;8.00;5.78;;;5.80;99.90;;;;;;5005464;28;20077;-50
2023/01/10 00:53:50;;;;;;;12.25;5.47;;;5.80;99.90;;;;;;5005478;28;20081;-46
2023/01/10 00:56:36;;;;;;;8.80;5.53;;;5.90;99.90;;;;;;4992296;28;20026;-53
2023/01/10 00:59:23;;;;;;;8.80;5.60;;;5.90;99.90;;;;;;4978603;28;20398;-53
2023/01/10 01:02:09;;;;;;;8.63;6.32;;;5.90;99.90;;;;;;4992342;28;20037;-46
2023/01/10 01:04:55;;;;;;;9.48;5.85;;;6.00;99.90;;;;;;5006052;28;20358;-48
2023/01/10 01:07:40;;;;;;;7.80;5.53;;;6.10;99.90;;;;;;5005145;28;20411;-48
2023/01/10 01:10:26;;;;;;;11.48;5.93;;;6.20;99.90;;;;;;4991982;28;20430;-49
2023/01/10 01:13:20;;;;;;;12.35;6.47;;;6.30;99.90;;;;;;5005296;28;20035;-49
2023/01/10 01:16:07;;;;;;;6.70;5.22;;;6.30;99.90;;;;;;5003948;28;20403;-55
2023/01/10 01:18:53;;;;;;;9.15;6.40;;;6.40;99.90;;;;;;5007004;28;20034;-48
2023/01/10 01:21:39;;;;;;;8.48;5.90;;;6.40;99.90;;;;;;4995673;28;20042;-51
2023/01/10 01:24:24;;;;;;;7.47;5.30;;;6.40;99.90;;;;;;5011101;28;20402;-54
2023/01/10 01:27:10;;;;;;;8.35;5.60;;;6.40;99.90;;;;;;5010662;28;20494;-54
2023/01/10 01:29:56;;;;;;;8.52;6.15;;;6.40;99.90;;;;;;5010737;28;20040;-56
2023/01/10 01:32:42;;;;;;;8.90;5.65;;;6.40;99.90;;;;;;5011713;28;20030;-53
2023/01/10 01:35:28;;;;;;;9.60;5.63;;;6.50;99.90;;;;;;5019613;28;20068;-52
2023/01/10 01:38:16;;;;;;;10.55;5.90;;;6.50;99.90;;;;;;5016042;28;20029;-53
2023/01/10 01:41:03;;;;;;;6.57;5.10;;;6.30;99.90;;;;;;5030498;28;20077;-59
2023/01/10 01:43:58;;;;;;;8.77;5.70;;;6.40;99.90;;;;;;5029322;28;20036;-54
2023/01/10 01:47:06;;;;;;;7.80;5.22;;;6.40;99.90;;;;;;5031106;28;20021;-47
2023/01/10 01:49:53;;;;;;;6.68;4.60;;;6.30;99.90;;;;;;5031057;28;20437;-47
2023/01/10 01:52:39;;;;;;;7.93;5.28;;;6.40;99.90;;;;;;5030973;28;20060;-46
2023/01/10 01:55:29;;;;;;;8.13;4.78;;;6.50;99.90;;;;;;5030110;28;20032;-47
2023/01/10 01:58:20;;;;;;;8.40;5.32;;;6.30;99.90;;;;;;5014859;28;20024;-49
2023/01/10 02:01:06;;;;;;;11.35;5.43;;;6.30;99.90;;;;;;5030838;28;20021;-55
2023/01/10 02:03:57;;;;;;;7.40;5.50;;;6.30;99.90;;;;;;5030802;28;20029;-53
2023/01/10 02:06:46;;;;;;;8.52;5.60;;;6.30;99.90;;;;;;5028947;28;20037;-47
2023/01/10 02:09:42;;;;;;;6.95;5.85;;;6.30;99.90;;;;;;5030419;28;20030;-48
2023/01/10 02:12:30;;;;;;;13.00;6.53;;;6.30;99.90;;;;;;5029855;28;20444;-53
2023/01/10 02:15:17;;;;;;;10.30;6.55;;;6.30;99.90;;;;;;5030462;28;20112;-48
2023/01/10 02:18:04;;;;;;;13.77;6.85;;;6.10;99.90;;;;;;5029583;28;20083;-46
2023/01/10 02:21:35;;;;;;;10.65;7.07;;;6.10;99.90;;;;;;5016084;28;20516;-53
2023/01/10 02:24:41;;;;;;;8.90;6.35;;;6.20;99.90;;;;;;4970322;28;20041;-49
2023/01/10 02:27:36;;;;;;;;;;;6.20;99.90;;;;;;5030335;28;20047;-51
2023/01/10 02:30:40;;;;;;;10.98;6.28;;;6.20;99.90;;;;;;5030282;28;19909;-53
2023/01/10 02:33:31;;;;;;;10.35;6.45;;;6.30;99.90;;;;;;5030616;28;20061;-51
2023/01/10 02:36:40;;;;;;;11.00;7.38;;;6.30;99.90;;;;;;5033210;28;20022;-53
2023/01/10 02:39:41;;;;;;;9.38;6.32;;;6.10;99.90;;;;;;5033700;28;20132;-53
2023/01/10 02:42:55;;;;;;;11.38;6.40;;;6.00;99.90;;;;;;5032429;28;20033;-54
2023/01/10 02:45:49;;;;;;;10.13;7.05;;;5.90;99.90;;;;;;5019500;28;20589;-51
2023/01/10 02:48:35;;;;;;;12.15;6.82;;;5.90;99.90;;;;;;5033412;28;20029;-56
2023/01/10 02:51:28;;;;;;;10.88;7.72;;;6.00;99.90;;;;;;5034496;28;20026;-55
2023/01/10 02:54:20;;;;;;;14.60;7.53;;;6.00;99.90;;;;;;5033432;28;20061;-53
2023/01/10 02:57:30;;;;;;;11.38;7.43;;;6.00;99.90;;;;;;5032581;28;20091;-54
2023/01/10 03:00:28;;;;;;;13.98;8.77;;;5.90;99.90;;;;;;5032926;28;20036;-50
2023/01/10 03:03:39;;;;;;;13.48;7.88;;;5.70;99.90;;;;;;5032666;28;20029;-57
2023/01/10 03:06:28;;;;;;;13.45;7.97;;;5.60;99.90;;;;;;5030848;28;20107;-52
2023/01/10 03:09:32;;;;;;;14.70;7.63;;;5.50;99.90;;;;;;5032532;28;20021;-54
2023/01/10 03:12:26;;;;;;;17.27;9.45;;;5.50;99.90;;;;;;5032102;28;20504;-55
2023/01/10 03:15:17;;;;;;;13.20;7.65;;;5.50;99.90;;;;;;5032284;28;20441;-52
2023/01/10 03:18:07;;;;;;;14.68;8.32;;;5.60;99.90;;;;;;5018402;28;20021;-51
2023/01/10 03:20:56;;;;;;;11.93;7.75;;;5.60;99.90;;;;;;5031786;28;20084;-53
2023/01/10 03:23:44;;;;;;;10.82;7.43;;;5.70;99.90;;;;;;5032187;28;20513;-46
2023/01/10 03:26:44;;;;;;;15.00;8.45;;;5.70;99.90;;;;;;5032030;28;20048;-47
2023/01/10 03:29:54;;;;;;;13.57;8.23;;;5.70;99.90;;;;;;5032603;28;20382;-53
2023/01/10 03:32:41;;;;;;;12.25;7.82;;;5.70;99.90;;;;;;5033387;28;20037;-50
2023/01/10 03:35:45;;;;;;;12.57;7.95;;;5.60;99.90;;;;;;5032879;28;20034;-51
2023/01/10 03:38:43;;;;;;;13.45;7.72;;;5.70;99.90;;;;;;5031697;28;20029;-48
2023/01/10 03:41:48;;;;;;;12.48;8.57;;;5.60;99.90;;;;;;5032694;28;20030;-46
2023/01/10 03:44:48;;;;;;;13.73;8.73;;;5.60;99.90;;;;;;5032222;28;20049;-52
2023/01/10 03:47:44;;;;;;;12.55;8.43;;;5.70;99.90;;;;;;5016675;28;20022;-48
2023/01/10 03:50:31;;;;;;;13.13;8.18;;;5.70;99.90;;;;;;5031924;28;20169;-56
2023/01/10 03:53:17;;;;;;;12.30;7.80;;;5.60;99.90;;;;;;5032625;28;20033;-47
2023/01/10 03:56:04;;;;;;;14.68;8.75;;;5.70;99.90;;;;;;5018140;28;20025;-45
2023/01/10 03:58:50;;;;;;;13.15;8.00;;;5.80;99.90;;;;;;5017421;28;20104;-50
2023/01/10 04:01:36;;;;;;;12.38;7.90;;;5.90;99.90;;;;;;5032295;28;20113;-51
2023/01/10 04:04:22;;;;;;;18.80;9.15;;;6.00;99.90;;;;;;5032527;28;20032;-52
2023/01/10 04:07:08;;;;;;;10.88;8.18;;;6.10;99.90;;;;;;5031254;28;20117;-46
2023/01/10 04:09:54;;;;;;;12.02;8.88;;;6.10;99.90;;;;;;5031224;28;20033;-47
2023/01/10 04:12:40;;;;;;;13.52;8.60;;;6.10;99.90;;;;;;5032118;28;20049;-47
2023/01/10 04:15:26;;;;;;;11.00;7.93;;;6.10;99.90;;;;;;5031143;28;20029;-48
2023/01/10 04:18:14;;;;;;;12.85;8.68;;;6.10;99.90;;;;;;5017482;28;21162;-47
2023/01/10 04:21:00;;;;;;;13.52;9.30;;;6.00;99.90;;;;;;5031479;28;20073;-47
2023/01/10 04:23:46;;;;;;;11.68;8.07;;;6.00;99.90;;;;;;5018655;28;20029;-47
2023/01/10 04:26:32;;;;;;;14.32;8.63;;;6.00;99.90;;;;;;5031064;28;20426;-51
2023/01/10 04:29:18;;;;;;;15.90;9.27;;;5.90;99.90;;;;;;5033252;28;20025;-50
2023/01/10 04:32:04;;;;;;;13.50;8.32;;;5.80;99.90;;;;;;5031490;28;20024;-48
2023/01/10 04:34:50;;;;;;;13.00;8.65;;;5.90;99.90;;;;;;5017414;28;20494;-48
2023/01/10 04:37:36;;;;;;;14.52;9.40;;;6.00;99.90;;;;;;5001307;28;20025;-47
2023/01/10 04:40:22;;;;;;;12.85;8.57;;;6.00;99.90;;;;;;5026583;28;20402;-47
2023/01/10 04:43:09;;;;;;;15.18;8.95;;;6.10;99.90;;;;;;5031776;28;20045;-47
2023/01/10 04:45:55;;;;;;;13.02;8.43;;;6.10;99.90;;;;;;5031730;28;20033;-49
2023/01/10 04:48:41;;;;;;;11.63;8.60;;;6.20;99.90;;;;;;5031421;28;20030;-49
2023/01/10 04:51:28;;;;;;;14.60;7.60;;;6.20;99.90;;;;;;5031517;28;20354;-52
2023/01/10 04:54:13;;;;;;;10.60;7.90;;;6.20;99.90;;;;;;5031833;28;20149;-53
2023/01/10 04:56:59;;;;;;;13.43;8.30;;;6.20;99.90;;;;;;5030088;28;20451;-46
2023/01/10 04:59:46;;;;;;;13.60;8.75;;;6.20;99.90;;;;;;5032834;28;20041;-49
2023/01/10 05:02:32;;;;;;;12.32;8.60;;;6.10;99.90;;;;;;5019374;28;20504;-52
2023/01/10 05:05:17;;;;;;;14.35;8.68;;;6.00;99.90;;;;;;5003958;28;20033;-47
2023/01/10 05:08:04;;;;;;;12.18;8.40;;;6.00;99.90;;;;;;5030043;28;20405;-47
2023/01/10 05:10:49;;;;;;;12.27;8.38;;;6.00;99.90;;;;;;5030548;28;20039;-48
2023/01/10 05:13:35;;;;;;;13.20;7.75;;;6.00;99.90;;;;;;5030865;28;20049;-54
2023/01/10 05:16:21;;;;;;;10.88;8.65;;;6.10;99.90;;;;;;5030239;28;20025;-55
2023/01/10 05:19:07;;;;;;;13.27;8.75;;;6.10;99.90;;;;;;5031610;28;20532;-52
2023/01/10 05:21:53;;;;;;;13.48;8.50;;;6.10;99.90;;;;;;5031329;28;20033;-50
2023/01/10 05:24:39;;;;;;;10.18;7.88;;;6.10;99.90;;;;;;5030846;28;20040;-51
2023/01/10 05:27:25;;;;;;;14.73;8.55;;;6.30;99.90;;;;;;5030020;28;20025;-52
2023/01/10 05:30:12;;;;;;;9.55;7.90;;;6.20;99.90;;;;;;5031728;28;20076;-56
2023/01/10 05:32:58;;;;;;;11.13;8.57;;;6.30;99.90;;;;;;5031194;28;20057;-57
2023/01/10 05:35:44;;;;;;;11.35;8.77;;;6.20;99.90;;;;;;4993272;28;20161;-56
2023/01/10 05:38:30;;;;;;;12.85;8.85;;;6.30;99.90;;;;;;4990727;28;20027;-54
2023/01/10 05:41:16;;;;;;;13.57;8.15;;;6.30;99.90;;;;;;4990787;28;20035;-50
2023/01/10 05:44:03;;;;;;;12.68;8.27;;;6.30;99.90;;;;;;5017778;28;20034;-51
2023/01/10 05:46:48;;;;;;;10.48;8.15;;;6.30;99.90;;;;;;5012836;28;20022;-48
2023/01/10 05:49:34;;;;;;;14.45;7.93;;;6.30;99.90;;;;;;4998651;28;20565;-53
2023/01/10 05:52:20;;;;;;;11.65;8.90;;;6.40;99.90;;;;;;5016859;28;20113;-52
2023/01/10 05:55:06;;;;;;;11.02;7.63;;;6.30;99.90;;;;;;5013639;28;20014;-51
2023/01/10 05:57:52;;;;;;;10.85;8.00;;;6.30;99.90;;;;;;5011224;28;20022;-56
2023/01/10 06:00:39;;;;;;;10.77;8.25;;;6.30;99.90;;;;;;5010714;28;20022;-55
2023/01/10 06:03:25;;;;;;;11.60;7.88;;;6.40;99.90;;;;;;5008409;28;20030;-49
2023/01/10 06:06:11;;;;;;;12.07;7.40;;;6.40;99.90;;;;;;5010440;28;20037;-50
2023/01/10 06:08:58;;;;;;;11.40;7.55;;;6.30;99.90;;;;;;5037314;28;20041;-47
2023/01/10 06:11:44;;;;;;;11.25;7.65;;;6.30;99.90;;;;;;5017070;28;20398;-51
2023/01/10 06:14:30;;;;;;;10.93;7.00;;;6.30;99.90;;;;;;5001112;28;20022;-53
2023/01/10 06:17:16;;;;;;;10.20;7.55;;;6.20;99.90;;;;;;5000469;28;20501;-52
2023/01/10 06:20:02;;;;;;;9.65;7.00;;;6.20;99.90;;;;;;5015098;28;20101;-52
2023/01/10 06:22:48;;;;;;;11.23;7.22;;;6.20;99.90;;;;;;5012427;28;20026;-55
2023/01/10 06:25:39;;;;;;;9.77;7.45;;;6.30;99.90;;;;;;5000925;28;20394;-53
2023/01/10 06:28:24;;;;;;;10.70;6.75;;;6.20;99.90;;;;;;5010179;28;20560;-50
2023/01/10 06:31:10;;;;;;;9.73;6.97;;;6.30;99.90;;;;;;5013350;28;20161;-53
2023/01/10 06:33:56;;;;;;;12.73;7.35;;;6.40;99.90;;;;;;5027759;28;20152;-52
2023/01/10 06:36:42;;;;;;;9.98;6.65;;;6.30;99.90;;;;;;5010330;28;20050;-51
2023/01/10 06:39:28;;;;;;;9.93;6.80;;;6.30;99.90;;;;;;5011167;28;20022;-49
2023/01/10 06:42:14;;;;;;;11.80;7.15;;;6.20;99.90;;;;;;5011880;28;20029;-50
2023/01/10 06:45:00;;;;;;;12.63;6.97;;;6.10;99.90;;;;;;4997744;28;20033;-55
2023/01/10 06:47:46;;;;;;;9.20;5.68;;;6.10;99.90;;;;;;5008878;28;20502;-59
2023/01/10 06:50:32;;;;;;;8.25;5.80;;;6.20;99.90;;;;;;5011168;28;20060;-55
2023/01/10 06:53:18;;;;;;;11.55;6.47;;;6.30;99.90;;;;;;5012330;28;20044;-53
2023/01/10 06:56:04;;;;;;;12.32;6.10;;;6.20;99.90;;;;;;4999073;28;20593;-51
2023/01/10 06:58:50;;;;;;;9.50;5.85;;;6.20;99.90;;;;;;5019803;28;20038;-51
2023/01/10 07:01:36;;;;;;;9.68;5.28;;;6.10;99.90;;;;;;5018452;28;20026;-54
2023/01/10 07:04:23;;;;;;;12.50;5.53;;;6.20;99.90;;;;;;5015228;28;20533;-53
2023/01/10 07:07:09;;;;;;;11.75;5.28;;;6.10;99.90;;;;;;5013802;28;20030;-49
2023/01/10 07:09:55;;;;;;;8.20;4.38;;;6.10;99.90;;;;;;5000557;28;20068;-53
2023/01/10 07:12:41;;;;;;;9.23;4.50;;;6.20;99.90;;;;;;5013366;28;20022;-53
2023/01/10 07:15:27;;;;;;;7.88;4.82;;;6.20;99.90;;;;;;5013456;28;20022;-49
2023/01/10 07:18:13;;;;;;;6.90;4.20;;;6.20;99.90;;;;;;4999090;28;20014;-51
2023/01/10 07:20:59;;;;;;;7.18;5.03;;;6.30;99.90;;;;;;5021869;28;20034;-47
2023/01/10 07:23:48;;;;;;;13.05;5.03;;;6.20;99.90;;;;;;5021918;28;20120;-47
2023/01/10 07:26:35;;;;;;;13.18;6.07;;;6.30;99.90;;;;;;5018651;28;20499;-50
2023/01/10 07:29:21;;;;;;;10.48;4.60;;;6.10;99.90;;;;;;5004992;28;20859;-48
2023/01/10 07:32:07;;;;;;;7.50;4.47;;;6.10;99.90;;;;;;5022330;28;20021;-50
2023/01/10 07:34:53;;;;;;;12.30;4.50;;;6.20;99.90;;;;;;5024145;28;20092;-48
2023/01/10 07:37:39;;;;;;;11.35;4.80;;;6.30;99.90;;;;;;5019681;28;20022;-48
2023/01/10 07:40:26;;;;;;;11.23;4.20;;;6.30;99.90;;;;;;4994141;28;20026;-48
2023/01/10 07:43:12;;;;;;;7.78;4.68;;;6.50;99.90;;;;;;5019556;28;20036;-48
2023/01/10 07:45:59;;;;;;;10.68;4.40;;;6.50;99.90;;;;;;5005472;28;20064;-46
2023/01/10 07:48:45;;;;;;;7.97;4.50;;;6.50;99.90;;;;;;5021371;28;20057;-53
2023/01/10 07:51:32;;;;;;;8.52;4.53;;;6.50;99.90;;;;;;5007658;28;20053;-52
2023/01/10 07:54:18;;;;;;;7.00;4.10;;;6.50;99.90;;;;;;5032711;28;20040;-54
2023/01/10 07:57:04;;;;;;;8.07;4.28;;;6.60;99.90;;;;;;5031936;28;20100;-53
2023/01/10 07:59:50;;;;;;;6.95;4.28;;;6.50;99.90;;;;;;4993130;28;20062;-54
2023/01/10 08:02:35;;;;;;;8.85;4.78;;;6.50;99.90;;;;;;5006976;28;20041;-50
2023/01/10 08:05:22;;;;;;;7.15;4.40;;;6.60;99.90;;;;;;5031852;28;20060;-55
2023/01/10 08:08:10;;;;;;;10.23;4.55;;;6.60;99.90;;;;;;5022007;28;20030;-54
2023/01/10 08:10:58;;;;;;;10.07;4.70;;;6.60;99.90;;;;;;5019672;28;20490;-55
2023/01/10 08:13:44;;;;;;;11.93;5.32;;;6.80;99.90;;;;;;5014797;28;20541;-55
2023/01/10 08:16:30;;;;;;;8.27;4.85;;;6.80;99.90;;;;;;5009889;28;20025;-54
2023/01/10 08:19:16;;;;;;;11.00;5.75;;;6.80;99.90;;;;;;4996177;28;20026;-56
2023/01/10 08:22:02;;;;;;;10.65;5.93;;;6.70;99.90;;;;;;5012130;28;20029;-57
2023/01/10 08:24:48;;;;;;;12.88;6.50;;;6.80;99.90;;;;;;5030583;28;20394;-56
2023/01/10 08:27:34;;;;;;;12.07;6.43;;;6.60;99.90;;;;;;5031826;28;20485;-54
2023/01/10 08:30:20;;;;;;;13.95;6.85;;;6.50;99.90;;;;;;5026616;28;20088;-59
2023/01/10 08:33:07;;;;;;;12.40;7.28;;;6.60;99.90;;;;;;5018953;28;20026;-54
2023/01/10 08:35:53;;;;;;;13.68;6.97;;;6.60;99.90;;;;;;5015306;28;20033;-55
2023/01/10 08:38:39;;;;;;;12.98;7.25;;;6.60;99.90;;;;;;4993447;28;20502;-55
2023/01/10 08:41:25;;;;;;;13.48;8.35;;;6.60;99.90;;;;;;5006889;28;20030;-56
2023/01/10 08:44:14;;;;;;;18.35;6.78;;;6.70;99.90;;;;;;5001046;28;20066;-56
2023/01/10 08:47:01;;;;;;;11.73;7.30;;;6.70;99.90;;;;;;5007152;28;20026;-55
2023/01/10 08:49:48;;;;;;;15.00;7.75;;;6.70;99.90;;;;;;5033390;28;20068;-52
2023/01/10 08:52:34;;;;;;;18.33;7.45;;;6.70;99.90;;;;;;5031229;28;20057;-55
2023/01/10 08:55:20;;;;;;;15.60;7.93;;;6.80;99.90;;;;;;5030611;28;20132;-49
2023/01/10 08:58:06;;;;;;;18.15;8.20;;;6.90;99.90;;;;;;5021138;28;20045;-53
2023/01/10 09:00:52;;;;;;;17.15;8.35;;;6.90;99.90;;;;;;5011544;28;20026;-51
2023/01/10 09:03:38;;;;;;;19.42;7.47;;;6.90;99.90;;;;;;5014019;28;20117;-53
2023/01/10 09:06:24;;;;;;;11.10;6.90;;;6.90;99.90;;;;;;5012791;28;20038;-55
2023/01/10 09:09:11;;;;;;;14.00;6.88;;;6.90;99.90;;;;;;5012315;28;20118;-55
2023/01/10 09:11:56;;;;;;;15.18;7.40;;;6.80;99.90;;;;;;5015248;28;20104;-58
2023/01/10 09:14:42;;;;;;;14.85;6.15;;;6.90;99.90;;;;;;5014467;28;20089;-55
2023/01/10 09:17:28;;;;;;;15.45;6.60;;;6.80;99.90;;;;;;5009577;28;20492;-54
2023/01/10 09:20:15;;;;;;;18.00;7.03;;;6.90;99.90;;;;;;5032580;28;20840;-52
2023/01/10 09:23:16;;;;;;;10.40;6.18;;;6.80;99.90;;;;;;5016112;28;20119;-53
2023/01/10 09:26:02;;;;;;;17.90;6.88;;;6.80;99.90;;;;;;5010018;28;20498;-56
2023/01/10 09:28:48;;;;;;;14.32;6.43;;;6.90;99.90;;;;;;5010494;28;20038;-56
2023/01/10 09:31:34;;;;;;;12.98;5.80;;;6.90;99.90;;;;;;5011936;28;20018;-53
2023/01/10 09:34:21;;;;;;;11.23;5.40;;;6.90;99.90;;;;;;5031000;28;20029;-54
2023/01/10 09:37:07;;;;;;;11.35;5.32;;;7.00;99.90;;;;;;5029598;28;20075;-51
2023/01/10 09:39:53;;;;;;;15.35;5.55;;;6.90;99.90;;;;;;5030485;28;20041;-51
2023/01/10 09:43:06;;;;;;;17.65;5.53;;;7.00;99.90;;;;;;5005901;28;20064;-55
2023/01/10 09:46:27;;;;;;;12.95;5.40;;;7.00;99.90;;;;;;4999822;28;20029;-55
2023/01/10 09:49:34;;;;;;;9.57;5.70;;;6.90;99.90;;;;;;5020680;28;20033;-52
2023/01/10 09:52:40;;;;;;;13.05;5.63;;;6.90;99.90;;;;;;5020329;28;20018;-50
2023/01/10 09:55:29;;;;;;;11.07;5.40;;;6.90;99.90;;;;;;5017908;28;20022;-57
2023/01/10 09:58:18;;;;;;;14.20;5.70;;;7.00;99.90;;;;;;5016136;28;20034;-56
2023/01/10 10:01:09;;;;;;;15.30;6.25;;;7.00;99.90;;;;;;5011703;28;20026;-54
2023/01/10 10:04:40;;;;;;;13.15;5.60;;;7.00;99.90;;;;;;5021275;28;20338;-56
2023/01/10 10:07:26;;;;;;;12.18;5.57;;;6.90;99.90;;;;;;5020669;28;20021;-57
2023/01/10 10:10:21;;;;;;;12.38;5.07;;;6.90;99.90;;;;;;5019736;28;20109;-53
2023/01/10 10:13:22;;;;;;;9.70;4.65;;;7.00;99.90;;;;;;5018089;28;20025;-56
2023/01/10 10:16:26;;;;;;;12.82;5.43;;;6.90;99.90;;;;;;5018961;28;20036;-58
2023/01/10 10:19:18;;;;;;;18.33;5.43;;;7.00;99.90;;;;;;5018970;28;20022;-57
2023/01/10 10:22:22;;;;;;;11.02;4.53;;;7.00;99.90;;;;;;5005785;28;20113;-55
2023/01/10 10:25:26;;;;;;;17.63;4.90;;;6.90;99.90;;;;;;5021671;28;20438;-57
2023/01/10 10:28:42;;;;;;;7.75;4.55;;;6.90;99.90;;;;;;5030385;28;20041;-56
2023/01/10 10:31:53;;;;;;;11.35;5.07;;;7.00;99.90;;;;;;5015175;28;20036;-57
2023/01/10 10:35:00;;;;;;;8.85;4.88;;;7.00;99.90;;;;;;5017950;28;20017;-56
2023/01/10 10:37:53;;;;;;;10.45;4.40;;;7.10;99.90;;;;;;5015954;28;20022;-56
2023/01/10 10:40:46;;;;;;;16.55;5.00;;;7.10;99.90;;;;;;5020355;28;20013;-56
2023/01/10 10:43:36;;;;;;;14.60;5.40;;;7.20;99.90;;;;;;5016040;28;20146;-54
2023/01/10 10:46:24;;;;;;;10.20;4.60;;;7.20;99.90;;;;;;5014513;28;20026;-56
2023/01/10 10:49:21;;;;;;;10.43;4.18;;;7.20;99.90;;;;;;5020715;28;20041;-56
2023/01/10 10:52:33;;;;;;;12.80;4.07;;;7.30;99.90;;;;;;5021169;28;20018;-57
2023/01/10 10:55:30;;;;;;;13.35;4.45;;;7.40;99.90;;;;;;5022445;28;20088;-57
2023/01/10 10:58:17;;;;;;;12.75;5.32;;;7.40;99.90;;;;;;5019776;28;20018;-55
2023/01/10 11:01:03;;;;;;;11.27;4.40;;;7.50;99.90;;;;;;5024535;28;20179;-50
2023/01/10 11:04:00;;;;;;;13.55;5.22;;;7.60;99.90;;;;;;5026190;28;20056;-57
2023/01/10 11:06:48;;;;;;;15.43;4.75;;;7.70;99.90;;;;;;5007178;28;20494;-53
2023/01/10 11:09:39;;;;;;;10.73;4.53;;;7.80;99.90;;;;;;5024435;28;20021;-55
2023/01/10 11:12:31;;;;;;;15.02;4.30;;;7.70;99.90;;;;;;5020113;28;20459;-57
2023/01/10 11:15:40;;;;;;;8.13;4.18;;;7.70;99.90;;;;;;5020976;28;20030;-55
2023/01/10 11:18:28;;;;;;;11.68;4.65;;;7.60;99.90;;;;;;5013492;28;20018;-56
2023/01/10 11:21:16;;;;;;;12.93;3.90;;;7.60;99.90;;;;;;5021798;28;20032;-57
2023/01/10 11:24:02;;;;;;;8.20;4.30;;;7.80;99.90;;;;;;5023168;28;20049;-60
2023/01/10 11:26:50;;;;;;;12.00;4.43;;;7.60;99.90;;;;;;5020892;28;20033;-56
2023/01/10 11:29:38;;;;;;;10.23;4.20;;;7.50;99.90;;;;;;5016015;28;20041;-53
2023/01/10 11:32:33;;;;;;;7.10;4.15;;;7.50;99.90;;;;;;5021979;28;20104;-60
2023/01/10 11:35:30;;;;;;;9.48;3.78;;;7.50;99.90;;;;;;5021669;28;20020;-59
2023/01/10 11:38:27;;;;;;;8.70;4.28;;;7.40;99.90;;;;;;4996788;28;20662;-55
2023/01/10 11:41:16;;;;;;;7.95;3.80;;;7.50;99.90;;;;;;5014337;28;20556;-55
2023/01/10 11:44:35;;;;;;;13.32;4.60;;;7.50;99.90;;;;;;5021047;28;20041;-56
2023/01/10 11:47:21;;;;;;;11.32;4.22;;;7.50;99.90;;;;;;4978229;28;20069;-54
2023/01/10 11:50:09;;;;;;;9.70;4.57;;;7.50;99.90;;;;;;5002776;28;20482;-55
2023/01/10 11:52:55;;;;;;;9.77;4.35;;;7.50;99.90;;;;;;5022284;28;20278;-54
2023/01/10 11:55:47;;;;;;;9.02;3.97;;;7.50;99.90;;;;;;5018803;28;20105;-56
2023/01/10 11:58:35;;;;;;;8.07;4.10;;;7.50;99.90;;;;;;5027435;28;20492;-51
2023/01/10 12:01:55;;;;;;;8.18;3.72;;;7.60;99.90;;;;;;5008653;28;20030;-56
2023/01/10 12:04:45;;;;;;;8.77;4.20;;;7.50;99.90;;;;;;5016245;28;20105;-55
2023/01/10 12:08:06;;;;;;;12.00;4.60;;;7.50;99.90;;;;;;5022850;28;20639;-51
2023/01/10 12:11:03;;;;;;;16.77;4.57;;;7.50;99.90;;;;;;5022496;28;20028;-53
2023/01/10 12:13:51;;;;;;;7.70;4.65;;;7.50;99.90;;;;;;5024795;28;20086;-54
2023/01/10 12:16:37;;;;;;;10.30;4.75;;;7.50;99.90;;;;;;5018387;28;20081;-52
2023/01/10 12:19:23;;;;;;;8.75;5.43;;;7.50;99.90;;;;;;5008450;28;20124;-55
2023/01/10 12:22:12;;;;;;;7.85;4.85;;;7.50;99.90;;;;;;5005873;28;20506;-52
2023/01/10 12:25:01;;;;;;;13.88;4.82;;;7.60;99.90;;;;;;5010611;28;20136;-57
2023/01/10 12:27:49;;;;;;;13.25;5.03;;;7.50;99.90;;;;;;5012506;28;20034;-55
2023/01/10 12:30:42;;;;;;;10.32;5.57;;;7.60;99.90;;;;;;5007124;28;20586;-53
2023/01/10 12:33:37;;;;;;;13.63;5.70;;;7.60;99.90;;;;;;5003075;28;20028;-55
2023/01/10 12:36:33;;;;;;;6.97;4.82;;;7.60;99.90;;;;;;5014954;28;20041;-53
2023/01/10 12:39:22;;;;;;;11.55;5.60;;;7.60;99.90;;;;;;5019157;28;20085;-55
2023/01/10 12:45:22;;;;;;;11.13;6.18;;;7.70;99.90;;;;;;5021209;28;20030;-56
2023/01/10 12:48:29;;;;;;;14.65;6.32;;;7.70;99.90;;;;;;5020539;28;20028;-54
2023/01/10 12:51:19;;;;;;;12.98;5.70;;;7.70;99.90;;;;;;5022407;28;20488;-55
2023/01/10 12:54:16;;;;;;;14.23;5.70;;;7.60;99.90;;;;;;5003947;28;20482;-57
2023/01/10 12:57:15;;;;;;;14.75;6.85;;;7.60;99.90;;;;;;5015840;28;20025;-51
2023/01/10 13:00:05;;;;;;;8.98;5.50;;;7.50;99.90;;;;;;5017831;28;20033;-58
2023/01/10 13:02:58;;;;;;;10.77;5.80;;;7.60;99.90;;;;;;5017521;28;20025;-55
2023/01/10 13:05:48;;;;;;;10.02;5.72;;;7.70;99.90;;;;;;5026057;28;20065;-58
2023/01/10 13:08:37;;;;;;;10.75;6.38;;;7.70;99.90;;;;;;5020349;28;20109;-57
2023/01/10 13:11:27;;;;;;;14.57;6.82;;;7.70;99.90;;;;;;5012858;28;20125;-52
2023/01/10 13:14:15;;;;;;;14.05;6.15;;;7.70;99.90;;;;;;5006387;28;20026;-53
2023/01/10 13:17:13;;;;;;;11.32;5.60;;;7.90;99.90;;;;;;5017949;28;20018;-53
2023/01/10 13:20:20;;;;;;;14.18;5.85;;;8.10;99.90;;;;;;5018052;28;20033;-52
2023/01/10 13:23:22;;;;;;;11.82;5.55;;;8.40;99.90;;;;;;5017827;28;20061;-57
2023/01/10 13:26:08;;;;;;;16.42;5.88;;;8.50;99.90;;;;;;5018583;28;20029;-57
2023/01/10 13:28:59;;;;;;;12.15;5.85;;;8.70;99.90;;;;;;5021101;28;20149;-57
2023/01/10 13:31:48;;;;;;;12.88;5.55;;;8.40;99.90;;;;;;5015748;28;20022;-48
2023/01/10 13:34:35;;;;;;;11.35;5.75;;;8.40;99.90;;;;;;5000354;28;20109;-58
2023/01/10 13:37:36;;;;;;;9.57;5.55;;;8.20;99.90;;;;;;5019226;28;20013;-54
2023/01/10 13:40:27;;;;;;;13.23;5.68;;;8.10;99.90;;;;;;5019117;28;20025;-55
2023/01/10 13:43:35;;;;;;;10.75;5.60;;;8.10;99.90;;;;;;5011706;28;20113;-51
2023/01/10 13:46:21;;;;;;;16.05;4.97;;;8.10;99.90;;;;;;5011257;28;20045;-52
2023/01/10 13:49:10;;;;;;;10.27;5.80;;;8.10;99.90;;;;;;5017333;28;20405;-52
2023/01/10 13:52:31;;;;;;;13.48;5.57;;;8.00;99.90;;;;;;5015791;28;20026;-54
2023/01/10 13:55:26;;;;;;;17.80;7.25;;;8.00;99.90;;;;;;5001715;28;20026;-50
2023/01/10 13:58:12;;;;;;;12.25;6.00;;;7.90;99.90;;;;;;5013701;28;20486;-54
2023/01/10 14:04:06;;;;;;;11.20;4.63;;;7.90;99.90;;;;;;5013063;28;20038;-52
2023/01/10 14:06:55;;;;;;;11.68;5.45;;;7.90;99.90;;;;;;5018509;28;20042;-56
2023/01/10 14:09:44;;;;;;;10.50;5.45;;;7.80;99.90;;;;;;5015230;28;20026;-54
2023/01/10 14:12:49;;;;;;;11.20;4.97;;;7.90;99.90;;;;;;5011358;28;20037;-51
2023/01/10 14:15:41;;;;;;;9.70;4.77;;;7.80;99.90;;;;;;5012764;28;20069;-55
2023/01/10 14:18:34;;;;;;;12.35;5.05;;;7.80;99.90;;;;;;5017243;28;20498;-55
2023/01/10 14:21:27;;;;;;;10.80;4.45;;;7.90;99.90;;;;;;5014727;28;20329;-53
2023/01/10 14:24:37;;;;;;;12.95;5.18;;;8.20;99.90;;;;;;5013178;28;20450;-50
2023/01/10 14:27:24;;;;;;;15.73;5.85;;;8.00;99.90;;;;;;5008961;28;20085;-55
2023/01/10 14:30:31;;;;;;;8.10;4.35;;;7.90;99.90;;;;;;5015580;28;20029;-52
2023/01/10 14:33:22;;;;;;;11.68;4.57;;;8.00;99.90;;;;;;5009503;28;20024;-55
2023/01/10 14:36:17;;;;;;;10.68;4.85;;;7.90;99.90;;;;;;5015824;28;20026;-54
2023/01/10 14:39:04;;;;;;;;;;;7.90;99.90;;;;;;5015525;28;20033;-52
2023/01/10 14:41:53;;;;;;;8.23;4.35;;;7.80;99.90;;;;;;5012550;28;19920;-54
2023/01/10 14:45:22;;;;;;;12.50;4.78;;;7.80;99.90;;;;;;5020782;28;20060;-59
2023/01/10 14:48:22;;;;;;;11.15;4.07;;;7.70;99.90;;;;;;5018103;28;20080;-58
2023/01/10 14:51:20;;;;;;;9.63;3.47;;;7.70;99.90;;;;;;5020851;28;20116;-58
2023/01/10 14:54:11;;;;;;;10.63;4.78;;;7.70;99.90;;;;;;5020359;28;20017;-58
2023/01/10 14:56:57;;;;;;;11.73;5.05;;;7.70;99.90;;;;;;5019683;28;20446;-58
2023/01/10 14:59:43;;;;;;;11.48;4.20;;;7.70;99.90;;;;;;5020939;28;20104;-59
2023/01/10 15:02:30;;;;;;;7.07;3.92;;;7.70;99.90;;;;;;5017295;28;20021;-57
2023/01/10 15:05:25;;;;;;;9.80;4.78;;;7.70;99.90;;;;;;5025384;28;20487;-58